Terminal Aerodrome Forecast
Issued by NWS

Home | Current Version | Previous Version | Text Only | Print | Product List | Glossary On
Versions: 1 2 3 4 5 6 7 8 9 10 11 12 13 14 15 16 17 18 19 20
000
FTUS41 KALY 290530
TAFPSF
TAF
KPSF 290530Z 2906/3006 06010G18KT P6SM OVC025
     FM291000 05008KT P6SM OVC020
     FM291500 07010KT P6SM BKN020 BKN080
     FM291800 09012G20KT P6SM SCT020 SCT080 BKN200
     FM300000 10009KT P6SM SCT100 BKN200=

USA.gov is the U.S. government's official web portal to all federal, state and local government web resources and services.